createdAt,value
2022-09-17T00:02:16.661Z,58.74
2022-09-17T00:04:46.081Z,59.16
2022-09-17T00:07:15.701Z,58.83
2022-09-17T00:09:47.652Z,59.16
2022-09-17T00:12:17.042Z,58.29
2022-09-17T00:14:46.685Z,58.46
2022-09-17T00:17:16.092Z,58.59
2022-09-17T00:19:45.486Z,58.99
2022-09-17T00:22:14.876Z,59.44
2022-09-17T00:24:44.486Z,59.17
2022-09-17T00:27:16.474Z,58.96
2022-09-17T00:29:45.868Z,59.23
2022-09-17T00:32:15.241Z,59.33
2022-09-17T00:34:46.635Z,59.05
2022-09-17T00:37:16.054Z,59.06
2022-09-17T00:39:45.481Z,58.59
2022-09-17T00:42:17.529Z,58.74
2022-09-17T00:44:51.157Z,58.63
2022-09-17T00:47:26.440Z,59.51
2022-09-17T00:49:58.361Z,59.02
2022-09-17T00:52:30.052Z,59.42
2022-09-17T00:55:03.084Z,58.92
2022-09-17T00:57:35.107Z,59.60
2022-09-17T01:00:05.077Z,59.74
2022-09-17T01:02:34.468Z,59.65
2022-09-17T01:05:03.854Z,59.65
2022-09-17T01:07:58.718Z,59.70
2022-09-17T01:10:38.849Z,59.98
2022-09-17T01:13:17.315Z,60.28
2022-09-17T01:15:49.796Z,59.79
2022-09-17T01:18:25.835Z,60.21
2022-09-17T01:21:30.741Z,60.21
2022-09-17T01:24:32.777Z,59.83
2022-09-17T01:27:45.634Z,60.03
2022-09-17T01:30:40.078Z,59.97
2022-09-17T01:33:11.772Z,60.41
2022-09-17T01:35:46.465Z,60.28
2022-09-17T01:38:27.424Z,60.54
2022-09-17T01:41:00.400Z,60.20
2022-09-17T01:43:33.101Z,60.91
2022-09-17T01:46:07.006Z,61.10
2022-09-17T01:48:39.033Z,61.18
2022-09-17T01:51:09.441Z,61.08
2022-09-17T01:53:41.579Z,61.11
2022-09-17T01:56:11.002Z,60.74
2022-09-17T01:58:42.226Z,60.55
2022-09-17T02:01:14.247Z,60.79
2022-09-17T02:03:44.824Z,60.96
2022-09-17T02:06:15.630Z,60.62
2022-09-17T02:08:48.286Z,60.93
2022-09-17T02:11:17.862Z,61.08
2022-09-17T02:13:50.079Z,60.73
2022-09-17T02:16:24.546Z,60.91
2022-09-17T02:18:58.242Z,60.88
2022-09-17T02:21:32.178Z,61.14
2022-09-17T02:24:10.078Z,60.19
2022-09-17T02:26:40.281Z,60.29
2022-09-17T02:29:11.677Z,60.24
2022-09-17T02:31:43.743Z,59.96
2022-09-17T02:34:13.158Z,59.78
2022-09-17T02:36:42.718Z,59.80
2022-09-17T02:39:12.196Z,60.00
2022-09-17T02:41:47.246Z,60.40
2022-09-17T02:44:21.877Z,60.26
2022-09-17T02:47:11.691Z,60.28
2022-09-17T02:50:01.661Z,60.54
2022-09-17T02:52:35.198Z,60.16
2022-09-17T02:55:07.498Z,60.07
2022-09-17T02:57:39.706Z,60.39
2022-09-17T03:00:12.189Z,60.28
2022-09-17T03:02:45.964Z,60.53
2022-09-17T03:05:15.364Z,60.41
2022-09-17T03:07:44.773Z,60.21
2022-09-17T03:10:14.227Z,60.40
2022-09-17T03:12:43.665Z,60.71
2022-09-17T03:15:13.511Z,60.12
2022-09-17T03:17:47.275Z,59.68
2022-09-17T03:20:19.907Z,60.01
2022-09-17T03:22:49.361Z,60.00
2022-09-17T03:25:18.952Z,59.61
2022-09-17T03:27:48.377Z,59.62
2022-09-17T03:30:17.873Z,59.37
2022-09-17T03:32:49.927Z,59.52
2022-09-17T03:35:19.361Z,60.12
2022-09-17T03:37:49.146Z,60.20
2022-09-17T03:40:19.935Z,60.44
2022-09-17T03:42:49.504Z,60.64
2022-09-17T03:45:18.961Z,60.44
2022-09-17T03:47:50.952Z,60.81
2022-09-17T03:50:20.537Z,60.43
2022-09-17T03:52:49.968Z,60.57
2022-09-17T03:55:19.957Z,60.87
2022-09-17T03:57:49.347Z,60.56
2022-09-17T04:00:19.469Z,60.57
2022-09-17T04:02:51.537Z,60.67
2022-09-17T04:05:21.026Z,60.67
2022-09-17T04:07:50.466Z,60.44
2022-09-17T04:10:20.122Z,60.76
2022-09-17T04:12:49.518Z,60.05
2022-09-17T04:15:18.969Z,60.65
2022-09-17T04:17:50.937Z,60.52
2022-09-17T04:20:20.414Z,61.34
2022-09-17T04:22:49.806Z,61.94
2022-09-17T04:25:19.613Z,61.73
2022-09-17T04:27:49.082Z,62.48
2022-09-17T04:30:18.670Z,62.58
2022-09-17T04:32:50.828Z,63.06
2022-09-17T04:35:20.336Z,62.68
2022-09-17T04:37:55.177Z,62.57
2022-09-17T04:40:24.659Z,62.70
2022-09-17T04:42:55.270Z,62.21
2022-09-17T04:45:24.749Z,62.85
2022-09-17T04:47:56.720Z,62.59
2022-09-17T04:50:26.214Z,62.60
2022-09-17T04:52:55.609Z,62.53
2022-09-17T04:55:25.388Z,61.93
2022-09-17T04:57:55.437Z,61.81
2022-09-17T05:00:25.090Z,61.80
2022-09-17T05:02:57.676Z,62.34
2022-09-17T05:05:27.238Z,62.62
2022-09-17T05:07:56.648Z,62.03
2022-09-17T05:10:26.451Z,62.27
2022-09-17T05:12:56.941Z,61.98
2022-09-17T05:15:27.839Z,62.01
2022-09-17T05:17:59.816Z,61.33
2022-09-17T05:20:29.340Z,61.78
2022-09-17T05:22:58.722Z,63.17
2022-09-17T05:25:28.124Z,63.91
2022-09-17T05:27:57.517Z,64.29
2022-09-17T05:30:26.949Z,64.30
2022-09-17T05:33:04.324Z,63.54
2022-09-17T05:35:35.882Z,63.07
2022-09-17T05:38:06.198Z,62.86
2022-09-17T05:40:37.428Z,63.77
2022-09-17T05:43:07.684Z,64.43
2022-09-17T05:45:37.597Z,65.27
2022-09-17T05:48:11.205Z,65.78
2022-09-17T05:50:41.361Z,66.32
2022-09-17T05:53:11.525Z,66.42
2022-09-17T05:55:41.111Z,66.74
2022-09-17T05:58:14.265Z,66.87
2022-09-17T06:00:43.916Z,67.78
2022-09-17T06:03:16.276Z,67.66
2022-09-17T06:05:45.809Z,68.00
2022-09-17T06:08:15.205Z,67.85
2022-09-17T06:10:44.608Z,66.72
2022-09-17T06:13:14.012Z,66.55
2022-09-17T06:15:43.416Z,66.67
2022-09-17T06:18:12.831Z,66.03
2022-09-17T06:20:44.840Z,66.05
2022-09-17T06:23:16.098Z,66.21
2022-09-17T06:25:45.557Z,65.16
2022-09-17T06:28:14.962Z,65.06
2022-09-17T06:30:44.364Z,64.48
2022-09-17T06:33:13.770Z,63.94
2022-09-17T06:35:45.814Z,63.38
2022-09-17T06:38:15.251Z,61.93
2022-09-17T06:40:44.640Z,62.17
2022-09-17T06:43:14.024Z,62.29
2022-09-17T06:45:43.432Z,61.78
2022-09-17T06:48:12.816Z,60.45
2022-09-17T06:50:44.822Z,60.34
2022-09-17T06:53:14.204Z,59.78
2022-09-17T06:55:43.690Z,59.83
2022-09-17T06:58:13.078Z,60.74
2022-09-17T07:00:42.522Z,59.50
2022-09-17T07:03:12.207Z,59.44
2022-09-17T07:05:41.900Z,58.08
2022-09-17T07:08:13.901Z,57.66
2022-09-17T07:10:43.309Z,57.81
2022-09-17T07:13:12.696Z,57.91
2022-09-17T07:15:42.195Z,57.87
2022-09-17T07:18:11.816Z,57.65
2022-09-17T07:20:41.581Z,57.24
2022-09-17T07:23:10.969Z,57.99
2022-09-17T07:25:42.986Z,58.18
2022-09-17T07:28:12.388Z,57.76
2022-09-17T07:30:41.806Z,57.62
2022-09-17T07:33:11.321Z,56.60
2022-09-17T07:35:40.717Z,56.26
2022-09-17T07:38:10.100Z,55.66
2022-09-17T07:40:39.534Z,53.45
2022-09-17T07:43:11.538Z,57.02
2022-09-17T07:45:40.954Z,58.10
2022-09-17T07:48:10.355Z,59.32
2022-09-17T07:50:40.855Z,59.76
2022-09-17T07:53:10.248Z,59.37
2022-09-17T07:55:39.660Z,59.10
2022-09-17T07:58:11.721Z,58.16
2022-09-17T08:00:41.539Z,56.53
2022-09-17T08:03:11.012Z,55.39
2022-09-17T08:05:40.480Z,54.03
2022-09-17T08:08:09.906Z,53.75
2022-09-17T08:10:39.305Z,51.50
2022-09-17T08:13:11.267Z,49.73
2022-09-17T08:15:40.684Z,49.94
2022-09-17T08:18:10.079Z,49.05
2022-09-17T08:20:39.473Z,47.87
2022-09-17T08:23:09.256Z,47.04
2022-09-17T08:25:38.665Z,47.69
2022-09-17T08:28:10.642Z,48.59
2022-09-17T08:30:40.057Z,48.63
2022-09-17T08:33:09.432Z,49.13
2022-09-17T08:35:38.839Z,49.20
2022-09-17T08:38:08.425Z,48.09
2022-09-17T08:40:39.250Z,48.05
2022-09-17T08:43:11.514Z,48.10
2022-09-17T08:45:40.968Z,47.08
2022-09-17T08:48:11.768Z,45.51
2022-09-17T08:50:42.121Z,47.12
2022-09-17T08:53:38.562Z,46.12
2022-09-17T08:56:09.839Z,46.83
2022-09-17T08:58:57.117Z,45.04
2022-09-17T09:01:34.449Z,44.00
2022-09-17T09:04:19.745Z,43.44
2022-09-17T09:06:50.690Z,42.35
2022-09-17T09:09:21.147Z,42.72
2022-09-17T09:11:51.237Z,41.75
2022-09-17T09:14:26.377Z,43.77
2022-09-17T09:16:55.986Z,45.42
2022-09-17T09:19:27.023Z,48.61
2022-09-17T09:22:00.927Z,51.55
2022-09-17T09:24:34.087Z,52.84
2022-09-17T09:27:06.456Z,53.94
2022-09-17T09:29:41.831Z,54.07
2022-09-17T09:32:17.999Z,53.34
2022-09-17T09:34:47.440Z,51.89
2022-09-17T09:37:19.001Z,51.14
2022-09-17T09:39:48.398Z,50.30
2022-09-17T09:42:21.687Z,49.12
2022-09-17T09:44:53.648Z,49.37
2022-09-17T09:47:32.588Z,50.17
2022-09-17T09:50:08.389Z,48.92
2022-09-17T09:52:45.236Z,49.32
2022-09-17T09:55:26.688Z,48.17
2022-09-17T09:57:58.281Z,47.04
2022-09-17T10:00:31.911Z,46.74
2022-09-17T10:03:04.521Z,46.75
2022-09-17T10:05:33.942Z,46.09
2022-09-17T10:08:03.567Z,45.66
2022-09-17T10:10:32.953Z,44.80
2022-09-17T10:13:10.105Z,46.24
2022-09-17T10:15:42.652Z,45.61
2022-09-17T10:18:18.705Z,44.05
2022-09-17T10:20:58.345Z,44.12
2022-09-17T10:23:29.214Z,43.65
2022-09-17T10:25:58.799Z,42.86
2022-09-17T10:28:48.359Z,44.96
2022-09-17T10:31:20.428Z,43.84
2022-09-17T10:33:58.881Z,42.45
2022-09-17T10:36:40.266Z,41.48
2022-09-17T10:39:34.608Z,40.44
2022-09-17T10:42:04.856Z,39.11
2022-09-17T10:44:35.999Z,39.82
2022-09-17T10:47:13.577Z,37.28
2022-09-17T10:49:44.090Z,36.65
2022-09-17T10:52:15.930Z,36.54
2022-09-17T10:55:12.442Z,36.20
2022-09-17T10:57:55.179Z,35.58
2022-09-17T11:00:25.438Z,34.74
2022-09-17T11:03:20.950Z,36.64
2022-09-17T11:06:21.537Z,38.25
2022-09-17T11:08:57.457Z,38.97
2022-09-17T11:11:34.557Z,38.81
2022-09-17T11:14:07.823Z,37.59
2022-09-17T11:16:40.096Z,38.12
2022-09-17T11:19:17.437Z,38.37
2022-09-17T11:21:49.126Z,39.07
2022-09-17T11:24:52.817Z,38.13
2022-09-17T11:27:32.530Z,38.81
2022-09-17T11:30:07.168Z,39.06
2022-09-17T11:32:53.645Z,38.05
2022-09-17T11:35:26.852Z,37.59
2022-09-17T11:38:00.127Z,36.25
2022-09-17T11:40:35.444Z,35.02
2022-09-17T11:43:06.361Z,36.11
2022-09-17T11:45:37.773Z,36.22
2022-09-17T11:48:08.568Z,34.57
2022-09-17T11:50:43.842Z,35.95
2022-09-17T11:53:17.977Z,34.06
2022-09-17T11:55:49.198Z,33.45
2022-09-17T11:58:20.047Z,33.63
2022-09-17T12:00:52.714Z,32.22
2022-09-17T12:03:26.352Z,33.22
2022-09-17T12:05:59.808Z,34.87
2022-09-17T12:08:32.106Z,36.14
2022-09-17T12:11:04.030Z,35.47
2022-09-17T12:13:35.606Z,36.28
2022-09-17T12:16:18.103Z,35.54
2022-09-17T12:18:51.157Z,35.75
2022-09-17T12:21:25.565Z,34.80
2022-09-17T12:23:57.128Z,33.85
2022-09-17T12:26:42.882Z,33.54
2022-09-17T12:29:16.988Z,33.80
2022-09-17T12:31:48.467Z,33.91
2022-09-17T12:34:29.665Z,34.15
2022-09-17T12:37:03.679Z,33.76
2022-09-17T12:39:39.890Z,35.08
2022-09-17T12:42:13.710Z,35.20
2022-09-17T12:45:05.208Z,34.67
2022-09-17T12:47:52.711Z,35.56
2022-09-17T12:50:23.321Z,35.96
2022-09-17T12:53:05.260Z,35.96
2022-09-17T12:55:42.906Z,36.16
2022-09-17T12:58:18.727Z,36.90
2022-09-17T13:00:50.910Z,36.56
2022-09-17T13:03:23.188Z,37.19
2022-09-17T13:06:23.861Z,37.52
2022-09-17T13:09:18.104Z,36.99
2022-09-17T13:12:16.477Z,37.19
2022-09-17T13:14:54.806Z,36.79
2022-09-17T13:17:27.419Z,37.05
2022-09-17T13:20:00.434Z,36.98
2022-09-17T13:22:33.514Z,37.32
2022-09-17T13:25:10.193Z,37.64
2022-09-17T13:27:39.691Z,39.51
2022-09-17T13:30:11.059Z,45.67
2022-09-17T13:32:56.183Z,50.80
2022-09-17T13:35:49.680Z,53.66
2022-09-17T13:38:23.084Z,56.00
2022-09-17T13:40:57.556Z,59.91
2022-09-17T13:43:28.065Z,60.57
2022-09-17T13:46:17.465Z,62.05
2022-09-17T13:48:51.937Z,62.51
2022-09-17T13:51:49.395Z,59.27
2022-09-17T13:54:18.910Z,60.12
2022-09-17T13:56:52.433Z,60.82
2022-09-17T13:59:23.683Z,58.97
2022-09-17T14:02:04.275Z,57.90
2022-09-17T14:04:38.253Z,59.73
2022-09-17T14:07:35.509Z,57.30
2022-09-17T14:10:05.912Z,57.60
2022-09-17T14:12:57.607Z,54.22
2022-09-17T14:15:57.623Z,55.45
2022-09-17T14:18:39.906Z,54.80
2022-09-17T14:21:24.438Z,53.79
2022-09-17T14:23:57.604Z,53.72
2022-09-17T14:26:51.203Z,52.89
2022-09-17T14:29:33.457Z,53.28
2022-09-17T14:32:02.882Z,53.63
2022-09-17T14:34:32.309Z,56.76
2022-09-17T14:37:01.700Z,58.63
2022-09-17T14:39:33.077Z,62.52
2022-09-17T14:42:02.478Z,65.54
2022-09-17T14:44:34.675Z,65.62
2022-09-17T14:47:05.082Z,66.07
2022-09-17T14:49:36.041Z,64.03
2022-09-17T14:52:06.765Z,64.94
2022-09-17T14:54:36.738Z,64.76
2022-09-17T14:57:06.879Z,65.89
2022-09-17T14:59:52.346Z,64.85
2022-09-17T15:02:30.317Z,65.76
2022-09-17T15:05:00.266Z,67.05
2022-09-17T15:07:30.033Z,65.63
2022-09-17T15:10:09.514Z,66.46
2022-09-17T15:12:38.955Z,66.06
2022-09-17T15:15:17.080Z,65.45
2022-09-17T15:17:49.814Z,64.86
2022-09-17T15:20:21.884Z,64.68
2022-09-17T15:22:55.261Z,65.96
2022-09-17T15:25:26.528Z,66.61
2022-09-17T15:27:56.448Z,66.10
2022-09-17T15:30:28.514Z,65.62
2022-09-17T15:32:58.503Z,65.83
2022-09-17T15:35:30.235Z,65.83
2022-09-17T15:38:21.607Z,65.25
2022-09-17T15:40:49.663Z,62.82
2022-09-17T15:43:20.387Z,62.42
2022-09-17T15:45:52.416Z,62.77
2022-09-17T15:48:35.944Z,62.42
2022-09-17T15:51:06.999Z,60.43
2022-09-17T15:53:36.597Z,59.88
2022-09-17T15:56:08.107Z,60.40
2022-09-17T15:58:40.015Z,61.71
2022-09-17T16:01:42.226Z,61.73
2022-09-17T16:04:20.457Z,61.70
2022-09-17T16:06:58.730Z,61.04
2022-09-17T16:09:46.878Z,60.85
2022-09-17T16:12:18.496Z,61.30
2022-09-17T16:14:49.245Z,59.45
2022-09-17T16:17:33.098Z,61.26
2022-09-17T16:20:08.882Z,61.08
2022-09-17T16:22:38.293Z,60.47
2022-09-17T16:25:08.775Z,61.00
2022-09-17T16:27:47.072Z,59.69
2022-09-17T16:30:18.141Z,58.06
2022-09-17T16:32:47.621Z,59.05
2022-09-17T16:35:20.513Z,59.55
2022-09-17T16:37:51.394Z,59.15
2022-09-17T16:40:21.273Z,59.20
2022-09-17T16:42:50.842Z,58.38
2022-09-17T16:45:20.326Z,59.19
2022-09-17T16:47:49.893Z,59.32
2022-09-17T16:50:22.045Z,59.33
2022-09-17T16:52:51.477Z,57.85
2022-09-17T16:55:21.670Z,58.38
2022-09-17T16:57:51.144Z,59.56
2022-09-17T17:00:22.643Z,58.93
2022-09-17T17:02:55.664Z,59.20
2022-09-17T17:05:28.164Z,59.14
2022-09-17T17:07:57.705Z,59.21
2022-09-17T17:10:27.873Z,59.13
2022-09-17T17:12:57.297Z,59.97
2022-09-17T17:15:27.155Z,60.11
2022-09-17T17:17:57.533Z,58.89
2022-09-17T17:20:29.527Z,58.38
2022-09-17T17:22:58.938Z,59.70
2022-09-17T17:25:28.650Z,61.50
2022-09-17T17:27:58.053Z,63.66
2022-09-17T17:30:31.734Z,64.75
2022-09-17T17:33:04.095Z,66.42
2022-09-17T17:35:36.088Z,67.15
2022-09-17T17:38:05.515Z,66.61
2022-09-17T17:40:34.989Z,66.41
2022-09-17T17:43:04.455Z,67.85
2022-09-17T17:45:33.854Z,69.22
2022-09-17T17:48:03.571Z,69.10
2022-09-17T17:50:32.962Z,69.54
2022-09-17T17:53:04.936Z,69.81
2022-09-17T17:55:34.432Z,68.84
2022-09-17T17:58:03.826Z,69.23
2022-09-17T18:00:33.202Z,68.93
2022-09-17T18:03:02.674Z,69.14
2022-09-17T18:05:32.134Z,69.89
2022-09-17T18:08:01.550Z,70.35
2022-09-17T18:10:33.528Z,70.42
2022-09-17T18:13:02.923Z,70.40
2022-09-17T18:15:32.305Z,70.70
2022-09-17T18:18:01.698Z,71.01
2022-09-17T18:20:31.076Z,70.57
2022-09-17T18:23:00.469Z,70.34
2022-09-17T18:25:29.921Z,70.33
2022-09-17T18:28:01.891Z,69.29
2022-09-17T18:30:32.277Z,69.96
2022-09-17T18:33:01.683Z,69.95
2022-09-17T18:35:31.057Z,69.98
2022-09-17T18:38:00.433Z,69.50
2022-09-17T18:40:29.864Z,68.76
2022-09-17T18:43:01.869Z,68.64
2022-09-17T18:45:32.074Z,68.66
2022-09-17T18:48:01.448Z,68.39
2022-09-17T18:50:30.847Z,68.38
2022-09-17T18:53:00.229Z,69.07
2022-09-17T18:55:29.717Z,69.04
2022-09-17T18:58:01.682Z,69.05
2022-09-17T19:00:31.114Z,69.28
2022-09-17T19:03:00.573Z,69.52
2022-09-17T19:05:29.988Z,69.51
2022-09-17T19:07:59.370Z,69.98
2022-09-17T19:10:29.066Z,69.56
2022-09-17T19:12:58.439Z,69.40
2022-09-17T19:15:30.455Z,69.76
2022-09-17T19:17:59.836Z,69.75
2022-09-17T19:20:29.801Z,69.93
2022-09-17T19:22:59.230Z,70.06
2022-09-17T19:25:29.152Z,70.00
2022-09-17T19:27:58.618Z,70.56
2022-09-17T19:30:30.967Z,70.65
2022-09-17T19:33:00.592Z,70.50
2022-09-17T19:35:30.369Z,70.31
2022-09-17T19:38:03.581Z,71.13
2022-09-17T19:40:33.041Z,71.82
2022-09-17T19:43:02.452Z,72.16
2022-09-17T19:45:34.420Z,71.95
2022-09-17T19:48:04.128Z,72.20
2022-09-17T19:50:36.184Z,71.89
2022-09-17T19:53:05.577Z,72.23
2022-09-17T19:55:34.973Z,71.85
2022-09-17T19:58:04.640Z,72.00
2022-09-17T20:00:37.988Z,71.62
2022-09-17T20:03:07.462Z,71.99
2022-09-17T20:05:36.904Z,72.21
2022-09-17T20:08:06.416Z,72.09
2022-09-17T20:10:37.341Z,72.07
2022-09-17T20:13:07.150Z,72.07
2022-09-17T20:15:39.594Z,71.95
2022-09-17T20:18:09.077Z,71.66
2022-09-17T20:20:40.893Z,72.03
2022-09-17T20:23:10.400Z,72.26
2022-09-17T20:25:39.805Z,72.02
2022-09-17T20:28:09.632Z,72.18
2022-09-17T20:30:41.600Z,72.37
2022-09-17T20:33:10.979Z,72.85
2022-09-17T20:35:40.380Z,73.01
2022-09-17T20:41:03.521Z,72.66
2022-09-17T20:43:35.572Z,73.27
2022-09-17T20:46:08.467Z,73.23
2022-09-17T20:48:38.051Z,73.94
2022-09-17T20:51:08.442Z,73.87
2022-09-17T20:53:38.523Z,72.84
2022-09-17T20:56:08.840Z,70.83
2022-09-17T20:58:45.466Z,72.12
2022-09-17T21:01:20.537Z,72.72
2022-09-17T21:03:50.961Z,73.13
2022-09-17T21:06:20.633Z,72.91
2022-09-17T21:08:50.169Z,73.14
2022-09-17T21:11:19.898Z,73.06
2022-09-17T21:13:49.342Z,71.91
2022-09-17T21:16:21.453Z,71.17
2022-09-17T21:18:51.000Z,71.80
2022-09-17T21:21:20.713Z,71.04
2022-09-17T21:23:50.778Z,71.80
2022-09-17T21:26:20.857Z,71.81
2022-09-17T21:28:51.257Z,71.41
2022-09-17T21:31:25.443Z,71.43
2022-09-17T21:33:58.484Z,71.30
2022-09-17T21:36:28.856Z,70.42
2022-09-17T21:38:59.098Z,70.71
2022-09-17T21:41:28.674Z,70.44
2022-09-17T21:43:58.085Z,70.61
2022-09-17T21:46:30.841Z,70.26
2022-09-17T21:49:02.240Z,70.33
2022-09-17T21:51:33.910Z,69.71
2022-09-17T21:54:04.098Z,69.00
2022-09-17T21:56:33.808Z,70.15
2022-09-17T21:59:04.253Z,69.34
2022-09-17T22:01:39.663Z,69.59
2022-09-17T22:04:09.928Z,69.61
2022-09-17T22:06:39.663Z,68.67
2022-09-17T22:09:10.159Z,66.55
2022-09-17T22:11:39.913Z,67.72
2022-09-17T22:14:12.472Z,67.32
2022-09-17T22:16:45.124Z,68.73
2022-09-17T22:19:16.954Z,67.99
2022-09-17T22:21:47.500Z,68.19
2022-09-17T22:24:17.619Z,67.93
2022-09-17T22:26:49.844Z,68.16
2022-09-17T22:29:22.397Z,66.89
2022-09-17T22:31:54.369Z,66.46
2022-09-17T22:34:25.896Z,66.42
2022-09-17T22:36:55.349Z,66.97
2022-09-17T22:39:24.894Z,67.39
2022-09-17T22:41:54.758Z,66.80
2022-09-17T22:44:24.174Z,66.45
2022-09-17T22:46:56.767Z,66.72
2022-09-17T22:49:26.210Z,66.54
2022-09-17T22:51:55.617Z,66.06
2022-09-17T22:54:25.037Z,65.71
2022-09-17T22:56:54.421Z,66.25
2022-09-17T22:59:23.826Z,65.61
2022-09-17T23:01:55.846Z,65.56
2022-09-17T23:04:25.265Z,65.66
2022-09-17T23:06:54.670Z,66.34
2022-09-17T23:09:24.097Z,66.41
2022-09-17T23:11:53.494Z,66.19
2022-09-17T23:14:22.922Z,65.95
2022-09-17T23:16:52.308Z,65.81
2022-09-17T23:19:24.413Z,66.72
2022-09-17T23:21:53.845Z,66.28
2022-09-17T23:24:24.027Z,67.12
2022-09-17T23:26:53.481Z,66.40
2022-09-17T23:29:22.984Z,65.48
2022-09-17T23:31:52.378Z,65.64
2022-09-17T23:34:24.659Z,65.79
2022-09-17T23:36:54.052Z,65.72
2022-09-17T23:39:23.487Z,65.25
2022-09-17T23:41:53.004Z,66.29
2022-09-17T23:44:22.439Z,65.71
2022-09-17T23:46:51.889Z,64.79
2022-09-17T23:49:23.938Z,65.77
2022-09-17T23:51:53.349Z,65.85
2022-09-17T23:54:23.155Z,65.40
2022-09-17T23:56:52.570Z,65.71
2022-09-17T23:59:21.991Z,65.88
